Time;durP1;ratioP1;P1;durP2;ratioP2;P2;SDS_P1;SDS_P2;PMS_P1;PMS_P2;Temp;Humidity;BMP_temperature;BMP_pressure;BME280_temperature;BME280_humidity;BME280_pressure;Samples;Min_cycle;Max_cycle;Signal;HPM_P1;HPM_P2
2024/04/18 00:14:39;;;;;;;11.30;2.65;;;;;;;19.47;100.00;98837.19;33497916;26;20065;-72
2024/04/18 00:29:43;;;;;;;8.40;2.20;;;;;;;19.53;100.00;98818.69;33560177;26;20007;-71
2024/04/18 00:44:45;;;;;;;8.27;2.27;;;;;;;19.52;100.00;98811.69;33587249;26;20364;-72
2024/04/18 00:59:50;;;;;;;3.53;2.10;;;;;;;19.57;100.00;98786.13;33537166;26;20649;-72
2024/04/18 01:14:52;;;;;;;4.00;2.28;;;;;;;19.29;100.00;98806.28;33546681;26;20011;-72
2024/04/18 01:29:54;;;;;;;13.10;3.08;;;;;;;19.40;100.00;98811.72;33480717;26;20004;-74
2024/04/18 01:44:57;;;;;;;5.57;2.72;;;;;;;19.61;100.00;98814.13;33488952;26;20081;-73
2024/04/18 02:00:00;;;;;;;6.07;2.97;;;;;;;19.73;100.00;98808.03;33529080;26;20048;-71
2024/04/18 02:15:02;;;;;;;6.30;3.20;;;;;;;19.56;95.75;98793.66;33565524;26;20047;-71
2024/04/18 02:30:05;;;;;;;9.48;3.00;;;;;;;19.63;94.63;98792.31;33494907;26;20083;-73
2024/04/18 02:45:08;;;;;;;6.57;2.97;;;;;;;19.48;93.31;98811.19;33496336;26;19999;-72
2024/04/18 03:00:11;;;;;;;7.90;2.90;;;;;;;19.44;95.50;98822.44;33574156;26;20459;-72
2024/04/18 03:15:13;;;;;;;11.40;2.47;;;;;;;19.20;97.34;98759.81;33555404;26;19996;-72
2024/04/18 03:30:16;;;;;;;9.18;2.92;;;;;;;19.38;94.89;98745.44;33479083;26;20018;-73
2024/04/18 03:45:18;;;;;;;9.07;2.50;;;;;;;19.56;90.68;98763.38;33527203;26;20027;-74
2024/04/18 04:00:22;;;;;;;7.82;2.63;;;;;;;19.85;88.40;98739.84;33517990;26;20012;-74
2024/04/18 04:15:25;;;;;;;8.48;2.40;;;;;;;19.78;90.00;98773.47;33540484;26;20456;-74
2024/04/18 04:30:27;;;;;;;9.57;3.80;;;;;;;19.24;100.00;98743.78;33545983;26;20014;-73
2024/04/18 04:45:29;;;;;;;7.95;3.80;;;;;;;18.58;100.00;98744.84;33450034;26;20004;-74
2024/04/18 05:00:36;;;;;;;8.77;4.43;;;;;;;19.13;100.00;98760.38;33466894;26;20022;-72
2024/04/18 05:15:45;;;;;;;10.05;4.07;;;;;;;19.18;100.00;98750.56;33508043;26;20114;-73
2024/04/18 05:31:01;;;;;;;15.27;4.63;;;;;;;19.39;100.00;98715.91;33487957;26;20005;-73
2024/04/18 05:46:04;;;;;;;5.82;2.83;;;;;;;19.16;100.00;98700.81;33492693;26;20155;-73
2024/04/18 06:01:08;;;;;;;9.98;2.80;;;;;;;19.74;100.00;98684.88;33487193;26;20007;-75
2024/04/18 06:16:12;;;;;;;8.20;3.05;;;;;;;20.12;100.00;98673.97;33502509;26;20024;-73
2024/04/18 06:31:16;;;;;;;8.50;3.85;;;;;;;20.48;100.00;98661.56;33502746;26;20009;-74
2024/04/18 06:46:19;;;;;;;8.85;3.15;;;;;;;20.67;100.00;98700.91;33515282;26;20025;-73
2024/04/18 07:01:23;;;;;;;11.55;2.88;;;;;;;21.68;98.12;98674.59;33517446;26;20488;-73
2024/04/18 07:16:25;;;;;;;8.18;2.20;;;;;;;21.78;91.79;98676.41;33479711;26;20356;-72
2024/04/18 07:31:28;;;;;;;10.90;2.45;;;;;;;22.96;77.61;98665.78;33506636;26;20007;-74
2024/04/18 07:46:33;;;;;;;6.75;2.75;;;;;;;23.19;74.70;98621.72;33481023;26;20031;-74
2024/04/18 08:01:40;;;;;;;4.70;2.47;;;;;;;22.95;77.98;98658.75;33584259;26;20474;-73
2024/04/18 08:16:45;;;;;;;11.48;2.53;;;;;;;23.62;72.81;98657.19;33447792;26;20436;-75
2024/04/18 08:31:51;;;;;;;10.88;2.85;;;;;;;25.25;68.21;98649.25;33514348;26;20015;-76
2024/04/18 08:46:55;;;;;;;4.38;2.90;;;;;;;26.86;63.12;98619.00;33530136;26;20000;-78
2024/04/18 09:02:01;;;;;;;12.10;3.92;;;;;;;27.30;57.02;98606.06;33468380;26;20489;-75
2024/04/18 09:17:14;;;;;;;8.35;3.40;;;;;;;26.58;51.53;98551.25;33421888;26;20062;-74
2024/04/18 09:32:16;;;;;;;28.17;4.35;;;;;;;26.21;54.21;98513.25;33484332;26;20019;-75
2024/04/18 09:47:21;;;;;;;9.20;2.00;;;;;;;26.15;51.52;98439.13;33508351;26;20014;-74
2024/04/18 10:02:28;;;;;;;35.97;17.27;;;;;;;26.48;48.53;98441.88;33483329;26;20012;-75
2024/04/18 10:17:31;;;;;;;7.25;2.05;;;;;;;26.87;49.00;98493.16;33503586;26;20000;-75
2024/04/18 10:32:36;;;;;;;5.25;2.22;;;;;;;26.98;47.29;98519.81;33563641;26;20004;-76
2024/04/18 10:47:40;;;;;;;9.65;2.65;;;;;;;27.59;46.52;98485.84;33537952;26;20004;-75
2024/04/18 11:02:48;;;;;;;5.05;1.80;;;;;;;27.43;44.92;98424.66;33576630;26;20484;-74
2024/04/18 11:17:53;;;;;;;5.97;1.63;;;;;;;27.05;43.56;98429.91;33540806;26;20018;-73
2024/04/18 11:32:55;;;;;;;7.07;2.47;;;;;;;27.04;44.90;98383.88;33593534;26;20011;-76
2024/04/18 11:48:04;;;;;;;10.38;3.28;;;;;;;26.85;45.58;98273.06;33545484;26;20010;-78
2024/04/18 12:03:07;;;;;;;10.05;3.78;;;;;;;27.21;47.02;98275.25;33471824;26;20000;-73
2024/04/18 12:18:09;;;;;;;10.38;2.72;;;;;;;27.53;46.42;98265.91;33438108;26;20056;-77
2024/04/18 12:33:12;;;;;;;7.22;2.63;;;;;;;27.03;45.95;98282.16;33479153;26;20462;-75
2024/04/18 12:48:15;;;;;;;11.18;3.05;;;;;;;26.79;45.82;98295.59;33492278;26;20000;-74
2024/04/18 13:03:17;;;;;;;8.27;2.25;;;;;;;26.93;46.53;98295.28;33482192;26;20018;-73
2024/04/18 13:18:20;;;;;;;9.52;1.83;;;;;;;26.36;49.75;98268.41;33503366;26;20007;-72
2024/04/18 13:33:24;;;;;;;5.25;2.00;;;;;;;26.11;49.72;98176.66;33567866;26;19999;-76
2024/04/18 13:48:26;;;;;;;7.72;2.00;;;;;;;25.63;51.06;98117.84;33496620;26;20007;-72
2024/04/18 14:03:30;;;;;;;5.33;2.27;;;;;;;26.55;49.67;98089.78;33571821;26;19999;-72
2024/04/18 14:18:49;;;;;;;8.45;3.55;;;;;;;26.90;48.63;98173.94;33586957;26;20082;-73
2024/04/18 14:33:52;;;;;;;9.23;2.40;;;;;;;26.77;49.06;98211.19;33516167;26;20004;-73
2024/04/18 14:49:34;;;;;;;;;;;;;;;;;;;;;
2024/04/18 15:04:47;;;;;;;14.45;2.42;;;;;;;26.51;52.38;98218.16;33550147;26;20008;-73
2024/04/18 15:19:50;;;;;;;8.38;2.55;;;;;;;25.76;53.80;98217.56;33544600;26;20017;-75
2024/04/18 15:34:56;;;;;;;7.53;1.80;;;;;;;25.57;54.85;98229.16;33536152;26;20020;-77
2024/04/18 15:49:58;;;;;;;4.88;1.67;;;;;;;24.77;56.28;98270.84;33467723;26;20061;-75
2024/04/18 16:05:01;;;;;;;5.97;2.30;;;;;;;24.50;57.26;98284.41;33534809;26;20009;-75
2024/04/18 16:20:04;;;;;;;17.15;3.63;;;;;;;23.19;81.31;98384.44;33510717;26;20018;-72
2024/04/18 16:35:07;;;;;;;11.97;3.43;;;;;;;21.69;98.52;98435.84;33495000;26;20003;-74
2024/04/18 16:50:09;;;;;;;7.38;2.28;;;;;;;20.92;98.72;98455.38;33540969;26;20008;-76
2024/04/18 17:05:12;;;;;;;6.18;1.88;;;;;;;20.70;93.52;98478.56;33551516;26;20040;-76
2024/04/18 17:20:14;;;;;;;5.20;1.70;;;;;;;20.40;83.88;98506.31;33535899;26;20015;-75
2024/04/18 17:35:18;;;;;;;2.60;1.00;;;;;;;20.07;83.56;98544.09;33544473;26;19999;-78
2024/04/18 17:50:21;;;;;;;3.60;1.70;;;;;;;19.83;88.03;98568.91;33642473;26;20015;-75
2024/04/18 18:05:23;;;;;;;2.55;1.50;;;;;;;19.83;92.86;98599.19;33456405;26;20008;-74
2024/04/18 18:20:35;;;;;;;3.70;2.13;;;;;;;19.28;100.00;98628.72;33562651;26;20003;-76
2024/04/18 18:35:37;;;;;;;4.75;1.77;;;;;;;18.89;100.00;98640.03;33544037;26;20010;-75
2024/04/18 18:50:42;;;;;;;4.75;1.77;;;;;;;19.10;100.00;98645.13;33551744;26;20040;-76
2024/04/18 19:05:51;;;;;;;2.97;1.38;;;;;;;19.45;100.00;98663.59;33516695;26;20011;-75
2024/04/18 19:20:53;;;;;;;2.80;1.60;;;;;;;18.64;100.00;98661.16;33576112;26;20015;-74
2024/04/18 19:35:55;;;;;;;15.43;5.15;;;;;;;18.56;100.00;98697.88;33451156;26;20402;-74
2024/04/18 19:50:58;;;;;;;5.00;2.20;;;;;;;18.20;100.00;98713.47;33491250;26;20366;-74
2024/04/18 20:06:01;;;;;;;3.47;1.43;;;;;;;17.72;100.00;98731.03;33559878;26;20463;-74
2024/04/18 20:21:03;;;;;;;4.87;1.60;;;;;;;17.20;100.00;98772.63;33452399;26;20418;-75
2024/04/18 20:36:06;;;;;;;2.70;1.07;;;;;;;17.00;100.00;98800.22;33573610;26;20466;-74
2024/04/18 20:51:08;;;;;;;1.50;0.90;;;;;;;16.89;100.00;98805.66;33498032;26;20011;-75
2024/04/18 21:06:11;;;;;;;1.30;0.93;;;;;;;16.61;100.00;98836.38;33465128;26;20463;-73
2024/04/18 21:21:13;;;;;;;0.90;0.70;;;;;;;16.12;100.00;98845.00;33479238;26;20618;-72
2024/04/18 21:36:16;;;;;;;1.23;0.90;;;;;;;16.18;100.00;98845.81;33610107;26;20339;-73
2024/04/18 21:51:18;;;;;;;3.07;1.30;;;;;;;15.81;100.00;98843.03;33515603;26;20474;-72
2024/04/18 22:06:21;;;;;;;4.30;1.50;;;;;;;15.71;100.00;98826.00;33560665;26;20004;-72
2024/04/18 22:21:23;;;;;;;2.73;1.30;;;;;;;15.52;100.00;98879.50;33516653;26;20612;-71
2024/04/18 22:36:26;;;;;;;1.97;1.40;;;;;;;15.87;100.00;98923.91;33566768;26;20085;-72
2024/04/18 22:51:28;;;;;;;2.00;1.00;;;;;;;15.46;100.00;98947.06;33454160;26;20466;-74
2024/04/18 23:06:31;;;;;;;4.03;1.90;;;;;;;15.64;100.00;98958.50;33442308;26;20011;-73
2024/04/18 23:21:34;;;;;;;1.83;1.60;;;;;;;15.76;100.00;98970.31;33412327;26;20012;-72
2024/04/18 23:36:36;;;;;;;1.37;1.17;;;;;;;15.31;100.00;98975.22;33448544;26;20024;-71
2024/04/18 23:51:38;;;;;;;1.13;0.73;;;;;;;15.23;100.00;98985.06;33440084;26;20109;-71
